sensor_id;sensor_type;location;lat;lon;timestamp;P1;durP1;ratioP1;P2;durP2;ratioP2
39882;SDS011;55824;52.220;21.040;2022-11-15T00:02:12;6.40;;;5.22;;
39882;SDS011;55824;52.220;21.040;2022-11-15T00:04:38;6.93;;;5.03;;
39882;SDS011;55824;52.220;21.040;2022-11-15T00:07:04;6.88;;;5.45;;
39882;SDS011;55824;52.220;21.040;2022-11-15T00:09:30;6.72;;;5.47;;
39882;SDS011;55824;52.220;21.040;2022-11-15T00:11:56;6.63;;;5.13;;
39882;SDS011;55824;52.220;21.040;2022-11-15T00:14:22;6.38;;;5.43;;
39882;SDS011;55824;52.220;21.040;2022-11-15T00:16:48;6.50;;;5.50;;
39882;SDS011;55824;52.220;21.040;2022-11-15T00:19:14;6.32;;;5.53;;
39882;SDS011;55824;52.220;21.040;2022-11-15T00:21:40;6.15;;;5.07;;
39882;SDS011;55824;52.220;21.040;2022-11-15T00:24:06;6.82;;;5.55;;
39882;SDS011;55824;52.220;21.040;2022-11-15T00:26:32;6.93;;;5.88;;
39882;SDS011;55824;52.220;21.040;2022-11-15T00:28:58;6.25;;;5.20;;
39882;SDS011;55824;52.220;21.040;2022-11-15T00:31:24;7.35;;;5.63;;
39882;SDS011;55824;52.220;21.040;2022-11-15T00:33:50;6.70;;;5.68;;
39882;SDS011;55824;52.220;21.040;2022-11-15T00:36:16;6.38;;;5.43;;
39882;SDS011;55824;52.220;21.040;2022-11-15T00:38:42;6.82;;;5.47;;
39882;SDS011;55824;52.220;21.040;2022-11-15T00:41:08;7.03;;;5.85;;
39882;SDS011;55824;52.220;21.040;2022-11-15T00:43:34;6.88;;;5.78;;
39882;SDS011;55824;52.220;21.040;2022-11-15T00:46:00;7.03;;;5.95;;
39882;SDS011;55824;52.220;21.040;2022-11-15T00:48:27;6.32;;;5.43;;
39882;SDS011;55824;52.220;21.040;2022-11-15T00:50:53;7.78;;;6.18;;
39882;SDS011;55824;52.220;21.040;2022-11-15T00:53:19;7.88;;;5.60;;
39882;SDS011;55824;52.220;21.040;2022-11-15T00:55:46;6.93;;;5.55;;
39882;SDS011;55824;52.220;21.040;2022-11-15T00:58:12;7.28;;;5.63;;
39882;SDS011;55824;52.220;21.040;2022-11-15T01:00:38;7.03;;;5.80;;
39882;SDS011;55824;52.220;21.040;2022-11-15T01:03:04;7.53;;;5.70;;
39882;SDS011;55824;52.220;21.040;2022-11-15T01:05:30;6.70;;;5.68;;
39882;SDS011;55824;52.220;21.040;2022-11-15T01:07:56;6.75;;;6.03;;
39882;SDS011;55824;52.220;21.040;2022-11-15T01:10:23;6.97;;;5.55;;
39882;SDS011;55824;52.220;21.040;2022-11-15T01:12:50;6.45;;;5.72;;
39882;SDS011;55824;52.220;21.040;2022-11-15T01:15:16;6.40;;;5.57;;
39882;SDS011;55824;52.220;21.040;2022-11-15T01:17:42;7.00;;;5.38;;
39882;SDS011;55824;52.220;21.040;2022-11-15T01:20:08;7.63;;;5.75;;
39882;SDS011;55824;52.220;21.040;2022-11-15T01:22:34;7.85;;;6.18;;
39882;SDS011;55824;52.220;21.040;2022-11-15T01:25:00;7.05;;;6.05;;
39882;SDS011;55824;52.220;21.040;2022-11-15T01:27:26;8.32;;;6.00;;
39882;SDS011;55824;52.220;21.040;2022-11-15T01:29:53;7.25;;;6.28;;
39882;SDS011;55824;52.220;21.040;2022-11-15T01:32:19;7.40;;;5.97;;
39882;SDS011;55824;52.220;21.040;2022-11-15T01:34:45;7.13;;;6.10;;
39882;SDS011;55824;52.220;21.040;2022-11-15T01:37:11;7.63;;;6.32;;
39882;SDS011;55824;52.220;21.040;2022-11-15T01:39:37;6.88;;;5.88;;
39882;SDS011;55824;52.220;21.040;2022-11-15T01:42:03;7.43;;;6.32;;
39882;SDS011;55824;52.220;21.040;2022-11-15T01:44:48;7.20;;;6.50;;
39882;SDS011;55824;52.220;21.040;2022-11-15T01:49:49;8.02;;;6.80;;
39882;SDS011;55824;52.220;21.040;2022-11-15T01:52:17;8.43;;;6.85;;
39882;SDS011;55824;52.220;21.040;2022-11-15T01:54:44;7.25;;;6.40;;
39882;SDS011;55824;52.220;21.040;2022-11-15T01:57:11;8.48;;;7.13;;
39882;SDS011;55824;52.220;21.040;2022-11-15T01:59:38;7.55;;;6.57;;
39882;SDS011;55824;52.220;21.040;2022-11-15T02:02:05;8.20;;;6.95;;
39882;SDS011;55824;52.220;21.040;2022-11-15T02:04:32;8.82;;;7.78;;
39882;SDS011;55824;52.220;21.040;2022-11-15T02:06:59;7.80;;;6.72;;
39882;SDS011;55824;52.220;21.040;2022-11-15T02:09:26;7.65;;;6.55;;
39882;SDS011;55824;52.220;21.040;2022-11-15T02:11:52;7.47;;;6.47;;
39882;SDS011;55824;52.220;21.040;2022-11-15T02:14:19;8.77;;;7.18;;
39882;SDS011;55824;52.220;21.040;2022-11-15T02:16:55;7.70;;;6.78;;
39882;SDS011;55824;52.220;21.040;2022-11-15T02:32:35;7.60;;;6.53;;
39882;SDS011;55824;52.220;21.040;2022-11-15T02:35:17;7.70;;;6.70;;
39882;SDS011;55824;52.220;21.040;2022-11-15T02:37:57;9.63;;;7.30;;
39882;SDS011;55824;52.220;21.040;2022-11-15T02:43:10;8.73;;;7.10;;
39882;SDS011;55824;52.220;21.040;2022-11-15T02:46:05;9.02;;;7.38;;
39882;SDS011;55824;52.220;21.040;2022-11-15T02:48:33;9.10;;;7.22;;
39882;SDS011;55824;52.220;21.040;2022-11-15T02:50:59;9.45;;;7.88;;
39882;SDS011;55824;52.220;21.040;2022-11-15T02:53:26;8.43;;;7.18;;
39882;SDS011;55824;52.220;21.040;2022-11-15T02:55:53;9.05;;;7.88;;
39882;SDS011;55824;52.220;21.040;2022-11-15T03:01:13;8.85;;;7.25;;
39882;SDS011;55824;52.220;21.040;2022-11-15T03:06:31;9.68;;;7.45;;
39882;SDS011;55824;52.220;21.040;2022-11-15T03:11:47;8.82;;;7.47;;
39882;SDS011;55824;52.220;21.040;2022-11-15T03:21:36;8.35;;;7.25;;
39882;SDS011;55824;52.220;21.040;2022-11-15T03:24:03;8.80;;;7.88;;
39882;SDS011;55824;52.220;21.040;2022-11-15T03:26:32;10.13;;;7.75;;
39882;SDS011;55824;52.220;21.040;2022-11-15T03:29:01;9.90;;;8.90;;
39882;SDS011;55824;52.220;21.040;2022-11-15T03:31:29;9.07;;;8.00;;
39882;SDS011;55824;52.220;21.040;2022-11-15T03:34:15;10.07;;;7.85;;
39882;SDS011;55824;52.220;21.040;2022-11-15T03:36:42;9.23;;;7.65;;
39882;SDS011;55824;52.220;21.040;2022-11-15T03:39:09;10.10;;;8.48;;
39882;SDS011;55824;52.220;21.040;2022-11-15T03:41:47;8.45;;;7.35;;
39882;SDS011;55824;52.220;21.040;2022-11-15T03:44:16;10.07;;;8.25;;
39882;SDS011;55824;52.220;21.040;2022-11-15T03:46:47;9.73;;;8.30;;
39882;SDS011;55824;52.220;21.040;2022-11-15T03:49:24;9.80;;;8.18;;
39882;SDS011;55824;52.220;21.040;2022-11-15T03:51:51;9.50;;;8.50;;
39882;SDS011;55824;52.220;21.040;2022-11-15T03:54:17;9.73;;;8.10;;
39882;SDS011;55824;52.220;21.040;2022-11-15T03:56:43;9.38;;;8.27;;
39882;SDS011;55824;52.220;21.040;2022-11-15T03:59:09;9.30;;;8.27;;
39882;SDS011;55824;52.220;21.040;2022-11-15T04:01:35;8.95;;;8.05;;
39882;SDS011;55824;52.220;21.040;2022-11-15T04:04:01;9.70;;;8.70;;
39882;SDS011;55824;52.220;21.040;2022-11-15T04:06:27;9.38;;;8.27;;
39882;SDS011;55824;52.220;21.040;2022-11-15T04:08:53;9.55;;;8.52;;
39882;SDS011;55824;52.220;21.040;2022-11-15T04:11:19;10.38;;;8.73;;
39882;SDS011;55824;52.220;21.040;2022-11-15T04:13:45;11.23;;;9.10;;
39882;SDS011;55824;52.220;21.040;2022-11-15T04:16:11;10.77;;;9.68;;
39882;SDS011;55824;52.220;21.040;2022-11-15T04:18:37;9.23;;;8.27;;
39882;SDS011;55824;52.220;21.040;2022-11-15T04:21:03;9.60;;;8.60;;
39882;SDS011;55824;52.220;21.040;2022-11-15T04:23:48;10.23;;;8.80;;
39882;SDS011;55824;52.220;21.040;2022-11-15T04:26:20;10.52;;;8.98;;
39882;SDS011;55824;52.220;21.040;2022-11-15T04:28:47;10.30;;;8.85;;
39882;SDS011;55824;52.220;21.040;2022-11-15T04:31:32;10.20;;;9.07;;
39882;SDS011;55824;52.220;21.040;2022-11-15T04:33:58;10.20;;;8.82;;
39882;SDS011;55824;52.220;21.040;2022-11-15T04:36:24;11.30;;;9.60;;
39882;SDS011;55824;52.220;21.040;2022-11-15T04:39:09;10.02;;;8.68;;
39882;SDS011;55824;52.220;21.040;2022-11-15T04:41:35;12.27;;;9.95;;
39882;SDS011;55824;52.220;21.040;2022-11-15T04:44:01;10.15;;;9.05;;
39882;SDS011;55824;52.220;21.040;2022-11-15T04:46:27;11.13;;;9.48;;
39882;SDS011;55824;52.220;21.040;2022-11-15T04:48:53;11.52;;;9.27;;
39882;SDS011;55824;52.220;21.040;2022-11-15T04:51:19;11.38;;;9.23;;
39882;SDS011;55824;52.220;21.040;2022-11-15T04:53:45;11.35;;;9.52;;
39882;SDS011;55824;52.220;21.040;2022-11-15T04:56:11;10.70;;;8.63;;
39882;SDS011;55824;52.220;21.040;2022-11-15T04:58:37;11.52;;;9.65;;
39882;SDS011;55824;52.220;21.040;2022-11-15T05:01:13;10.50;;;8.95;;
39882;SDS011;55824;52.220;21.040;2022-11-15T05:03:40;10.65;;;9.13;;
39882;SDS011;55824;52.220;21.040;2022-11-15T05:06:25;10.88;;;9.68;;
39882;SDS011;55824;52.220;21.040;2022-11-15T05:08:51;11.00;;;9.73;;
39882;SDS011;55824;52.220;21.040;2022-11-15T05:11:17;11.02;;;9.52;;
39882;SDS011;55824;52.220;21.040;2022-11-15T05:13:43;11.32;;;9.80;;
39882;SDS011;55824;52.220;21.040;2022-11-15T05:16:09;11.75;;;9.80;;
39882;SDS011;55824;52.220;21.040;2022-11-15T05:18:35;11.70;;;9.63;;
39882;SDS011;55824;52.220;21.040;2022-11-15T05:21:08;10.80;;;9.05;;
39882;SDS011;55824;52.220;21.040;2022-11-15T05:23:34;10.68;;;9.55;;
39882;SDS011;55824;52.220;21.040;2022-11-15T05:26:04;10.18;;;9.07;;
39882;SDS011;55824;52.220;21.040;2022-11-15T05:28:31;9.88;;;8.75;;
39882;SDS011;55824;52.220;21.040;2022-11-15T05:31:07;11.20;;;9.88;;
39882;SDS011;55824;52.220;21.040;2022-11-15T05:33:33;10.40;;;9.30;;
39882;SDS011;55824;52.220;21.040;2022-11-15T05:36:14;10.77;;;9.13;;
39882;SDS011;55824;52.220;21.040;2022-11-15T05:38:44;10.50;;;9.38;;
39882;SDS011;55824;52.220;21.040;2022-11-15T05:41:10;11.63;;;10.43;;
39882;SDS011;55824;52.220;21.040;2022-11-15T05:43:36;10.57;;;9.23;;
39882;SDS011;55824;52.220;21.040;2022-11-15T05:46:03;11.50;;;9.30;;
39882;SDS011;55824;52.220;21.040;2022-11-15T05:48:30;13.02;;;10.35;;
39882;SDS011;55824;52.220;21.040;2022-11-15T05:50:56;11.38;;;10.18;;
39882;SDS011;55824;52.220;21.040;2022-11-15T05:53:22;11.63;;;10.43;;
39882;SDS011;55824;52.220;21.040;2022-11-15T05:55:49;11.25;;;9.77;;
39882;SDS011;55824;52.220;21.040;2022-11-15T05:58:16;11.05;;;9.93;;
39882;SDS011;55824;52.220;21.040;2022-11-15T06:00:42;11.95;;;10.45;;
39882;SDS011;55824;52.220;21.040;2022-11-15T06:03:08;12.85;;;10.23;;
39882;SDS011;55824;52.220;21.040;2022-11-15T06:05:34;11.00;;;9.48;;
39882;SDS011;55824;52.220;21.040;2022-11-15T06:08:00;10.73;;;9.30;;
39882;SDS011;55824;52.220;21.040;2022-11-15T06:10:26;12.23;;;10.27;;
39882;SDS011;55824;52.220;21.040;2022-11-15T06:12:56;11.68;;;9.45;;
39882;SDS011;55824;52.220;21.040;2022-11-15T06:15:22;11.32;;;9.65;;
39882;SDS011;55824;52.220;21.040;2022-11-15T06:17:48;10.68;;;9.57;;
39882;SDS011;55824;52.220;21.040;2022-11-15T06:20:14;12.30;;;10.55;;
39882;SDS011;55824;52.220;21.040;2022-11-15T06:22:40;11.75;;;10.07;;
39882;SDS011;55824;52.220;21.040;2022-11-15T06:25:06;10.98;;;9.75;;
39882;SDS011;55824;52.220;21.040;2022-11-15T06:27:32;11.43;;;10.23;;
39882;SDS011;55824;52.220;21.040;2022-11-15T06:29:58;11.18;;;9.57;;
39882;SDS011;55824;52.220;21.040;2022-11-15T06:32:24;12.05;;;10.10;;
39882;SDS011;55824;52.220;21.040;2022-11-15T06:34:50;11.82;;;9.93;;
39882;SDS011;55824;52.220;21.040;2022-11-15T06:37:16;11.10;;;9.55;;
39882;SDS011;55824;52.220;21.040;2022-11-15T06:39:42;10.55;;;9.45;;
39882;SDS011;55824;52.220;21.040;2022-11-15T06:42:08;10.38;;;9.15;;
39882;SDS011;55824;52.220;21.040;2022-11-15T06:44:34;11.48;;;9.85;;
39882;SDS011;55824;52.220;21.040;2022-11-15T06:47:00;11.48;;;10.27;;
39882;SDS011;55824;52.220;21.040;2022-11-15T06:49:26;11.82;;;10.00;;
39882;SDS011;55824;52.220;21.040;2022-11-15T06:51:52;11.60;;;10.27;;
39882;SDS011;55824;52.220;21.040;2022-11-15T06:54:18;11.07;;;9.63;;
39882;SDS011;55824;52.220;21.040;2022-11-15T06:56:45;11.95;;;10.60;;
39882;SDS011;55824;52.220;21.040;2022-11-15T06:59:11;12.52;;;10.70;;
39882;SDS011;55824;52.220;21.040;2022-11-15T07:01:37;11.57;;;10.38;;
39882;SDS011;55824;52.220;21.040;2022-11-15T07:04:04;11.18;;;10.05;;
39882;SDS011;55824;52.220;21.040;2022-11-15T07:06:30;12.35;;;10.48;;
39882;SDS011;55824;52.220;21.040;2022-11-15T07:08:55;12.70;;;10.07;;
39882;SDS011;55824;52.220;21.040;2022-11-15T07:11:21;11.60;;;9.95;;
39882;SDS011;55824;52.220;21.040;2022-11-15T07:13:47;11.60;;;10.40;;
39882;SDS011;55824;52.220;21.040;2022-11-15T07:16:13;11.55;;;9.95;;
39882;SDS011;55824;52.220;21.040;2022-11-15T07:18:39;11.52;;;9.93;;
39882;SDS011;55824;52.220;21.040;2022-11-15T07:21:07;11.00;;;9.85;;
39882;SDS011;55824;52.220;21.040;2022-11-15T07:23:35;10.82;;;9.43;;
39882;SDS011;55824;52.220;21.040;2022-11-15T07:26:01;11.93;;;9.98;;
39882;SDS011;55824;52.220;21.040;2022-11-15T07:28:27;11.20;;;9.57;;
39882;SDS011;55824;52.220;21.040;2022-11-15T07:30:53;10.98;;;9.65;;
39882;SDS011;55824;52.220;21.040;2022-11-15T07:33:20;12.57;;;10.13;;
39882;SDS011;55824;52.220;21.040;2022-11-15T07:35:46;11.05;;;9.40;;
39882;SDS011;55824;52.220;21.040;2022-11-15T07:38:15;10.98;;;9.65;;
39882;SDS011;55824;52.220;21.040;2022-11-15T07:40:44;10.68;;;9.43;;
39882;SDS011;55824;52.220;21.040;2022-11-15T07:43:11;9.80;;;8.70;;
39882;SDS011;55824;52.220;21.040;2022-11-15T07:45:40;10.60;;;9.50;;
39882;SDS011;55824;52.220;21.040;2022-11-15T07:48:07;10.90;;;9.52;;
39882;SDS011;55824;52.220;21.040;2022-11-15T07:50:33;13.43;;;9.70;;
39882;SDS011;55824;52.220;21.040;2022-11-15T07:52:59;11.10;;;9.00;;
39882;SDS011;55824;52.220;21.040;2022-11-15T07:55:26;10.82;;;9.32;;
39882;SDS011;55824;52.220;21.040;2022-11-15T07:57:59;10.70;;;9.40;;
39882;SDS011;55824;52.220;21.040;2022-11-15T08:00:25;10.05;;;9.05;;
39882;SDS011;55824;52.220;21.040;2022-11-15T08:02:52;10.55;;;9.30;;
39882;SDS011;55824;52.220;21.040;2022-11-15T08:05:18;10.35;;;8.95;;
39882;SDS011;55824;52.220;21.040;2022-11-15T08:07:44;10.73;;;9.25;;
39882;SDS011;55824;52.220;21.040;2022-11-15T08:10:10;9.77;;;8.77;;
39882;SDS011;55824;52.220;21.040;2022-11-15T08:12:36;11.80;;;9.88;;
39882;SDS011;55824;52.220;21.040;2022-11-15T08:15:03;10.18;;;8.85;;
39882;SDS011;55824;52.220;21.040;2022-11-15T08:17:29;9.80;;;8.68;;
39882;SDS011;55824;52.220;21.040;2022-11-15T08:19:57;11.55;;;8.95;;
39882;SDS011;55824;52.220;21.040;2022-11-15T08:22:23;10.55;;;8.90;;
39882;SDS011;55824;52.220;21.040;2022-11-15T08:24:49;10.43;;;8.98;;
39882;SDS011;55824;52.220;21.040;2022-11-15T08:27:15;11.00;;;9.13;;
39882;SDS011;55824;52.220;21.040;2022-11-15T08:29:44;9.93;;;8.20;;
39882;SDS011;55824;52.220;21.040;2022-11-15T08:32:11;9.25;;;8.20;;
39882;SDS011;55824;52.220;21.040;2022-11-15T08:34:37;10.40;;;8.55;;
39882;SDS011;55824;52.220;21.040;2022-11-15T08:37:03;10.32;;;8.82;;
39882;SDS011;55824;52.220;21.040;2022-11-15T08:39:30;11.02;;;9.05;;
39882;SDS011;55824;52.220;21.040;2022-11-15T08:41:56;9.02;;;7.78;;
39882;SDS011;55824;52.220;21.040;2022-11-15T08:44:22;10.10;;;8.48;;
39882;SDS011;55824;52.220;21.040;2022-11-15T08:46:49;10.57;;;8.55;;
39882;SDS011;55824;52.220;21.040;2022-11-15T08:49:15;9.90;;;8.50;;
39882;SDS011;55824;52.220;21.040;2022-11-15T08:51:41;9.85;;;8.18;;
39882;SDS011;55824;52.220;21.040;2022-11-15T08:54:07;10.93;;;8.65;;
39882;SDS011;55824;52.220;21.040;2022-11-15T08:56:33;10.45;;;9.05;;
39882;SDS011;55824;52.220;21.040;2022-11-15T08:58:59;9.35;;;8.15;;
39882;SDS011;55824;52.220;21.040;2022-11-15T09:01:24;9.95;;;8.95;;
39882;SDS011;55824;52.220;21.040;2022-11-15T09:03:50;10.35;;;9.07;;
39882;SDS011;55824;52.220;21.040;2022-11-15T09:06:17;10.45;;;8.93;;
39882;SDS011;55824;52.220;21.040;2022-11-15T09:08:43;10.05;;;8.57;;
39882;SDS011;55824;52.220;21.040;2022-11-15T09:11:09;9.88;;;8.20;;
39882;SDS011;55824;52.220;21.040;2022-11-15T09:13:36;9.35;;;8.30;;
39882;SDS011;55824;52.220;21.040;2022-11-15T09:16:02;8.95;;;8.02;;
39882;SDS011;55824;52.220;21.040;2022-11-15T09:18:28;9.00;;;8.00;;
39882;SDS011;55824;52.220;21.040;2022-11-15T09:20:55;10.07;;;8.63;;
39882;SDS011;55824;52.220;21.040;2022-11-15T09:23:22;9.52;;;8.50;;
39882;SDS011;55824;52.220;21.040;2022-11-15T09:25:48;8.73;;;7.80;;
39882;SDS011;55824;52.220;21.040;2022-11-15T09:28:14;8.68;;;7.72;;
39882;SDS011;55824;52.220;21.040;2022-11-15T09:30:39;8.18;;;7.28;;
39882;SDS011;55824;52.220;21.040;2022-11-15T09:33:06;8.90;;;8.00;;
39882;SDS011;55824;52.220;21.040;2022-11-15T09:35:33;9.15;;;7.93;;
39882;SDS011;55824;52.220;21.040;2022-11-15T09:37:59;8.68;;;7.63;;
39882;SDS011;55824;52.220;21.040;2022-11-15T09:40:25;10.15;;;8.30;;
39882;SDS011;55824;52.220;21.040;2022-11-15T09:45:28;9.52;;;8.52;;
39882;SDS011;55824;52.220;21.040;2022-11-15T09:50:42;9.88;;;7.80;;
39882;SDS011;55824;52.220;21.040;2022-11-15T09:53:12;9.73;;;8.50;;
39882;SDS011;55824;52.220;21.040;2022-11-15T09:56:13;8.70;;;7.80;;
39882;SDS011;55824;52.220;21.040;2022-11-15T09:58:36;8.98;;;8.02;;
39882;SDS011;55824;52.220;21.040;2022-11-15T10:01:06;9.38;;;8.00;;
39882;SDS011;55824;52.220;21.040;2022-11-15T10:03:34;9.95;;;7.35;;
39882;SDS011;55824;52.220;21.040;2022-11-15T10:06:01;9.77;;;8.00;;
39882;SDS011;55824;52.220;21.040;2022-11-15T10:10:58;9.43;;;8.45;;
39882;SDS011;55824;52.220;21.040;2022-11-15T10:13:25;9.02;;;8.00;;
39882;SDS011;55824;52.220;21.040;2022-11-15T10:15:51;9.35;;;8.35;;
39882;SDS011;55824;52.220;21.040;2022-11-15T10:18:35;8.88;;;7.47;;
39882;SDS011;55824;52.220;21.040;2022-11-15T10:21:06;10.85;;;7.60;;
39882;SDS011;55824;52.220;21.040;2022-11-15T10:23:36;9.15;;;7.80;;
39882;SDS011;55824;52.220;21.040;2022-11-15T10:26:04;9.30;;;7.65;;
39882;SDS011;55824;52.220;21.040;2022-11-15T10:28:33;8.85;;;7.15;;
39882;SDS011;55824;52.220;21.040;2022-11-15T10:30:59;8.98;;;7.90;;
39882;SDS011;55824;52.220;21.040;2022-11-15T10:41:36;9.05;;;7.80;;
39882;SDS011;55824;52.220;21.040;2022-11-15T10:44:02;10.27;;;8.20;;
39882;SDS011;55824;52.220;21.040;2022-11-15T10:46:28;9.27;;;7.47;;
39882;SDS011;55824;52.220;21.040;2022-11-15T10:49:05;9.00;;;8.10;;
39882;SDS011;55824;52.220;21.040;2022-11-15T10:51:40;9.45;;;7.72;;
39882;SDS011;55824;52.220;21.040;2022-11-15T10:54:07;9.27;;;7.75;;
39882;SDS011;55824;52.220;21.040;2022-11-15T10:56:36;8.27;;;7.40;;
39882;SDS011;55824;52.220;21.040;2022-11-15T10:59:03;8.75;;;7.85;;
39882;SDS011;55824;52.220;21.040;2022-11-15T11:01:29;8.40;;;7.20;;
39882;SDS011;55824;52.220;21.040;2022-11-15T11:04:05;8.98;;;7.30;;
39882;SDS011;55824;52.220;21.040;2022-11-15T11:09:23;9.55;;;8.55;;
39882;SDS011;55824;52.220;21.040;2022-11-15T11:11:50;8.82;;;7.82;;
39882;SDS011;55824;52.220;21.040;2022-11-15T11:24:48;8.85;;;7.40;;
39882;SDS011;55824;52.220;21.040;2022-11-15T11:27:36;9.55;;;8.02;;
39882;SDS011;55824;52.220;21.040;2022-11-15T11:35:20;8.60;;;7.50;;
39882;SDS011;55824;52.220;21.040;2022-11-15T11:40:24;8.88;;;7.93;;
39882;SDS011;55824;52.220;21.040;2022-11-15T11:42:58;8.52;;;7.60;;
39882;SDS011;55824;52.220;21.040;2022-11-15T11:48:19;8.93;;;7.97;;
39882;SDS011;55824;52.220;21.040;2022-11-15T11:50:46;8.98;;;8.02;;
39882;SDS011;55824;52.220;21.040;2022-11-15T11:55:46;11.07;;;8.68;;
39882;SDS011;55824;52.220;21.040;2022-11-15T11:58:17;9.60;;;8.10;;
39882;SDS011;55824;52.220;21.040;2022-11-15T12:01:20;9.77;;;8.10;;
39882;SDS011;55824;52.220;21.040;2022-11-15T12:03:42;8.98;;;7.40;;
39882;SDS011;55824;52.220;21.040;2022-11-15T12:13:33;9.60;;;8.60;;
39882;SDS011;55824;52.220;21.040;2022-11-15T12:18:27;8.95;;;7.80;;
39882;SDS011;55824;52.220;21.040;2022-11-15T12:20:56;9.85;;;8.82;;
39882;SDS011;55824;52.220;21.040;2022-11-15T12:23:24;9.15;;;7.70;;
39882;SDS011;55824;52.220;21.040;2022-11-15T12:26:03;9.30;;;8.30;;
39882;SDS011;55824;52.220;21.040;2022-11-15T12:28:34;10.23;;;8.82;;
39882;SDS011;55824;52.220;21.040;2022-11-15T12:31:03;9.13;;;8.15;;
39882;SDS011;55824;52.220;21.040;2022-11-15T12:33:46;9.57;;;8.57;;
39882;SDS011;55824;52.220;21.040;2022-11-15T12:36:30;9.68;;;7.88;;
39882;SDS011;55824;52.220;21.040;2022-11-15T12:41:26;9.48;;;8.30;;
39882;SDS011;55824;52.220;21.040;2022-11-15T12:43:53;9.77;;;8.30;;
39882;SDS011;55824;52.220;21.040;2022-11-15T12:46:26;8.63;;;7.72;;
39882;SDS011;55824;52.220;21.040;2022-11-15T13:04:44;9.60;;;8.43;;
39882;SDS011;55824;52.220;21.040;2022-11-15T13:07:54;10.15;;;8.65;;
39882;SDS011;55824;52.220;21.040;2022-11-15T13:09:56;9.55;;;8.55;;
39882;SDS011;55824;52.220;21.040;2022-11-15T13:14:51;9.25;;;8.20;;
39882;SDS011;55824;52.220;21.040;2022-11-15T13:17:51;10.55;;;8.95;;
39882;SDS011;55824;52.220;21.040;2022-11-15T13:28:47;9.30;;;8.35;;
39882;SDS011;55824;52.220;21.040;2022-11-15T13:30:54;10.05;;;8.60;;
39882;SDS011;55824;52.220;21.040;2022-11-15T13:33:25;9.48;;;8.23;;
39882;SDS011;55824;52.220;21.040;2022-11-15T13:35:52;10.18;;;8.52;;
39882;SDS011;55824;52.220;21.040;2022-11-15T13:38:29;9.98;;;8.82;;
39882;SDS011;55824;52.220;21.040;2022-11-15T13:40:56;10.77;;;9.07;;
39882;SDS011;55824;52.220;21.040;2022-11-15T13:48:33;11.73;;;9.30;;
39882;SDS011;55824;52.220;21.040;2022-11-15T13:51:01;10.93;;;8.90;;
39882;SDS011;55824;52.220;21.040;2022-11-15T13:53:28;11.25;;;10.05;;
39882;SDS011;55824;52.220;21.040;2022-11-15T13:55:55;11.27;;;9.40;;
39882;SDS011;55824;52.220;21.040;2022-11-15T13:58:22;10.07;;;9.02;;
39882;SDS011;55824;52.220;21.040;2022-11-15T14:00:48;10.43;;;9.32;;
39882;SDS011;55824;52.220;21.040;2022-11-15T14:08:37;11.20;;;9.70;;
39882;SDS011;55824;52.220;21.040;2022-11-15T14:11:17;12.43;;;10.40;;
39882;SDS011;55824;52.220;21.040;2022-11-15T14:16:35;12.25;;;10.23;;
39882;SDS011;55824;52.220;21.040;2022-11-15T14:19:02;11.57;;;10.35;;
39882;SDS011;55824;52.220;21.040;2022-11-15T14:21:28;11.20;;;9.65;;
39882;SDS011;55824;52.220;21.040;2022-11-15T14:24:13;11.90;;;10.68;;
39882;SDS011;55824;52.220;21.040;2022-11-15T14:26:39;12.23;;;10.35;;
39882;SDS011;55824;52.220;21.040;2022-11-15T14:29:25;12.38;;;10.07;;
39882;SDS011;55824;52.220;21.040;2022-11-15T14:31:52;12.77;;;10.25;;
39882;SDS011;55824;52.220;21.040;2022-11-15T14:34:18;12.82;;;10.95;;
39882;SDS011;55824;52.220;21.040;2022-11-15T14:36:46;11.98;;;10.52;;
39882;SDS011;55824;52.220;21.040;2022-11-15T14:39:12;13.23;;;11.23;;
39882;SDS011;55824;52.220;21.040;2022-11-15T14:41:38;12.77;;;10.52;;
39882;SDS011;55824;52.220;21.040;2022-11-15T14:44:04;11.52;;;10.13;;
39882;SDS011;55824;52.220;21.040;2022-11-15T14:46:30;11.27;;;10.10;;
39882;SDS011;55824;52.220;21.040;2022-11-15T14:48:57;11.70;;;9.73;;
39882;SDS011;55824;52.220;21.040;2022-11-15T14:51:23;12.60;;;10.00;;
39882;SDS011;55824;52.220;21.040;2022-11-15T14:53:49;12.77;;;10.88;;
39882;SDS011;55824;52.220;21.040;2022-11-15T14:56:16;12.07;;;10.68;;
39882;SDS011;55824;52.220;21.040;2022-11-15T14:58:42;12.18;;;10.35;;
39882;SDS011;55824;52.220;21.040;2022-11-15T15:01:17;12.40;;;10.20;;
39882;SDS011;55824;52.220;21.040;2022-11-15T15:03:45;13.13;;;10.50;;
39882;SDS011;55824;52.220;21.040;2022-11-15T15:06:11;12.45;;;10.32;;
39882;SDS011;55824;52.220;21.040;2022-11-15T15:08:38;12.40;;;10.32;;
39882;SDS011;55824;52.220;21.040;2022-11-15T15:11:24;12.82;;;10.63;;
39882;SDS011;55824;52.220;21.040;2022-11-15T15:13:51;12.05;;;10.75;;
39882;SDS011;55824;52.220;21.040;2022-11-15T15:16:17;13.50;;;10.77;;
39882;SDS011;55824;52.220;21.040;2022-11-15T15:18:43;14.35;;;11.90;;
39882;SDS011;55824;52.220;21.040;2022-11-15T15:21:17;14.38;;;10.65;;
39882;SDS011;55824;52.220;21.040;2022-11-15T15:23:44;13.85;;;11.60;;
39882;SDS011;55824;52.220;21.040;2022-11-15T15:26:10;13.50;;;12.07;;
39882;SDS011;55824;52.220;21.040;2022-11-15T15:28:36;13.23;;;11.82;;
39882;SDS011;55824;52.220;21.040;2022-11-15T15:31:03;13.93;;;11.93;;
39882;SDS011;55824;52.220;21.040;2022-11-15T15:33:29;13.95;;;12.02;;
39882;SDS011;55824;52.220;21.040;2022-11-15T15:35:55;14.48;;;11.75;;
39882;SDS011;55824;52.220;21.040;2022-11-15T15:38:21;13.45;;;11.40;;
39882;SDS011;55824;52.220;21.040;2022-11-15T15:40:47;13.73;;;11.73;;
39882;SDS011;55824;52.220;21.040;2022-11-15T15:43:13;12.68;;;10.75;;
39882;SDS011;55824;52.220;21.040;2022-11-15T15:45:40;13.30;;;11.20;;
39882;SDS011;55824;52.220;21.040;2022-11-15T15:48:12;13.70;;;11.55;;
39882;SDS011;55824;52.220;21.040;2022-11-15T15:50:38;12.93;;;11.52;;
39882;SDS011;55824;52.220;21.040;2022-11-15T15:53:05;12.93;;;10.95;;
39882;SDS011;55824;52.220;21.040;2022-11-15T15:55:32;12.77;;;10.93;;
39882;SDS011;55824;52.220;21.040;2022-11-15T15:57:59;12.40;;;10.65;;
39882;SDS011;55824;52.220;21.040;2022-11-15T16:00:25;13.32;;;11.70;;
39882;SDS011;55824;52.220;21.040;2022-11-15T16:02:52;14.15;;;10.65;;
39882;SDS011;55824;52.220;21.040;2022-11-15T16:05:18;13.77;;;11.25;;
39882;SDS011;55824;52.220;21.040;2022-11-15T16:07:44;13.52;;;11.55;;
39882;SDS011;55824;52.220;21.040;2022-11-15T16:10:19;12.90;;;11.25;;
39882;SDS011;55824;52.220;21.040;2022-11-15T16:12:45;14.23;;;11.52;;
39882;SDS011;55824;52.220;21.040;2022-11-15T16:15:12;14.32;;;11.57;;
39882;SDS011;55824;52.220;21.040;2022-11-15T16:17:38;13.45;;;11.57;;
39882;SDS011;55824;52.220;21.040;2022-11-15T16:20:06;14.25;;;12.23;;
39882;SDS011;55824;52.220;21.040;2022-11-15T16:22:32;12.88;;;11.45;;
39882;SDS011;55824;52.220;21.040;2022-11-15T16:24:58;14.35;;;11.35;;
39882;SDS011;55824;52.220;21.040;2022-11-15T16:27:24;13.93;;;11.70;;
39882;SDS011;55824;52.220;21.040;2022-11-15T16:29:50;14.13;;;11.77;;
39882;SDS011;55824;52.220;21.040;2022-11-15T16:32:16;12.82;;;10.95;;
39882;SDS011;55824;52.220;21.040;2022-11-15T16:34:42;14.35;;;12.27;;
39882;SDS011;55824;52.220;21.040;2022-11-15T16:37:12;14.05;;;12.05;;
39882;SDS011;55824;52.220;21.040;2022-11-15T16:39:39;13.93;;;11.63;;